createdAt,value
2023-05-09T00:02:54.222Z,9.81
2023-05-09T00:05:56.967Z,9.82
2023-05-09T00:08:59.338Z,9.84
2023-05-09T00:12:02.565Z,9.86
2023-05-09T00:15:08.208Z,9.81
2023-05-09T00:18:11.226Z,9.76
2023-05-09T00:21:13.591Z,9.73
2023-05-09T00:24:16.340Z,9.72
2023-05-09T00:27:19.179Z,9.74
2023-05-09T00:30:21.851Z,9.56
2023-05-09T00:33:26.881Z,9.61
2023-05-09T00:36:29.519Z,9.60
2023-05-09T00:39:31.888Z,9.65
2023-05-09T00:42:35.527Z,9.61
2023-05-09T00:45:37.943Z,9.47
2023-05-09T00:48:40.870Z,9.49
2023-05-09T00:51:43.604Z,9.50
2023-05-09T00:54:46.189Z,9.50
2023-05-09T00:57:48.831Z,9.47
2023-05-09T01:00:51.604Z,9.37
2023-05-09T01:03:54.978Z,9.30
2023-05-09T01:07:27.287Z,9.34
2023-05-09T01:10:41.766Z,9.35
2023-05-09T01:14:16.824Z,9.37
2023-05-09T01:17:23.983Z,9.35
2023-05-09T01:20:51.851Z,9.16
2023-05-09T01:24:00.755Z,9.12
2023-05-09T01:27:22.129Z,9.15
2023-05-09T01:30:26.452Z,9.04
2023-05-09T01:33:33.798Z,9.06
2023-05-09T01:36:38.059Z,9.14
2023-05-09T01:39:44.954Z,9.10
2023-05-09T01:42:59.712Z,9.07
2023-05-09T01:46:05.320Z,9.05
2023-05-09T01:49:09.282Z,9.03
2023-05-09T01:52:15.246Z,8.95
2023-05-09T01:55:21.579Z,8.93
2023-05-09T01:58:26.964Z,8.87
2023-05-09T02:01:30.376Z,8.86
2023-05-09T02:04:33.626Z,8.86
2023-05-09T02:07:37.119Z,8.84
2023-05-09T02:10:39.904Z,8.68
2023-05-09T02:13:42.493Z,8.71
2023-05-09T02:16:45.376Z,8.70
2023-05-09T02:19:48.313Z,8.68
2023-05-09T02:22:50.815Z,8.67
2023-05-09T02:25:54.704Z,8.62
2023-05-09T02:28:58.953Z,8.62
2023-05-09T02:32:03.021Z,8.59
2023-05-09T02:35:09.379Z,8.56
2023-05-09T02:38:13.210Z,8.55
2023-05-09T02:41:16.234Z,8.53
2023-05-09T02:44:19.004Z,8.51
2023-05-09T02:47:21.866Z,8.49
2023-05-09T02:50:24.970Z,8.41
2023-05-09T02:53:27.621Z,8.34
2023-05-09T02:56:30.385Z,8.36
2023-05-09T02:59:33.388Z,8.35
2023-05-09T03:02:37.515Z,8.36
2023-05-09T03:05:40.937Z,8.34
2023-05-09T03:08:43.665Z,8.36
2023-05-09T03:11:46.380Z,8.32
2023-05-09T03:14:49.022Z,8.25
2023-05-09T03:17:51.472Z,8.26
2023-05-09T03:20:54.238Z,8.17
2023-05-09T03:23:56.795Z,8.19
2023-05-09T03:26:59.376Z,8.19
2023-05-09T03:30:01.874Z,8.24
2023-05-09T03:33:05.018Z,8.26
2023-05-09T03:36:07.874Z,8.23
2023-05-09T03:39:11.001Z,8.25
2023-05-09T03:42:14.329Z,8.26
2023-05-09T03:45:17.603Z,8.26
2023-05-09T03:48:20.610Z,8.30
2023-05-09T03:51:23.417Z,8.25
2023-05-09T03:54:26.018Z,8.33
2023-05-09T03:57:28.908Z,8.36
2023-05-09T04:00:31.990Z,8.38
2023-05-09T04:03:37.601Z,8.40
2023-05-09T04:06:40.622Z,8.47
2023-05-09T04:09:43.900Z,8.58
2023-05-09T04:12:46.721Z,8.61
2023-05-09T04:15:50.515Z,8.77
2023-05-09T04:18:52.874Z,8.87
2023-05-09T04:21:55.798Z,8.91
2023-05-09T04:24:58.157Z,8.88
2023-05-09T04:28:01.720Z,8.97
2023-05-09T04:31:04.509Z,9.01
2023-05-09T04:34:08.033Z,9.15
2023-05-09T04:37:11.144Z,9.13
2023-05-09T04:40:14.561Z,9.29
2023-05-09T04:43:18.036Z,9.27
2023-05-09T04:46:21.032Z,9.28
2023-05-09T04:49:24.320Z,9.36
2023-05-09T04:52:26.904Z,9.31
2023-05-09T04:55:29.310Z,9.42
2023-05-09T04:58:34.366Z,9.40
2023-05-09T05:01:37.375Z,9.49
2023-05-09T05:04:40.676Z,9.44
2023-05-09T05:07:43.504Z,9.50
2023-05-09T05:10:47.496Z,9.65
2023-05-09T05:13:50.564Z,9.78
2023-05-09T05:16:53.283Z,9.93
2023-05-09T05:19:57.803Z,10.00
2023-05-09T05:23:02.364Z,10.10
2023-05-09T05:26:05.219Z,10.16
2023-05-09T05:29:08.517Z,10.03
2023-05-09T05:32:11.056Z,10.19
2023-05-09T05:35:14.162Z,10.34
2023-05-09T05:38:17.013Z,10.48
2023-05-09T05:41:20.849Z,10.67
2023-05-09T05:44:24.236Z,10.80
2023-05-09T05:47:26.982Z,10.82
2023-05-09T05:50:29.910Z,10.91
2023-05-09T05:53:32.900Z,10.89
2023-05-09T05:56:35.602Z,10.98
2023-05-09T05:59:38.313Z,11.07
2023-05-09T06:02:44.907Z,11.22
2023-05-09T06:05:49.731Z,11.52
2023-05-09T06:08:52.487Z,11.69
2023-05-09T06:11:56.188Z,11.88
2023-05-09T06:14:58.759Z,11.96
2023-05-09T06:18:01.968Z,11.94
2023-05-09T06:21:04.681Z,11.98
2023-05-09T06:24:12.230Z,12.17
2023-05-09T06:27:19.503Z,12.21
2023-05-09T06:30:26.409Z,12.19
2023-05-09T06:33:29.323Z,12.37
2023-05-09T06:36:32.363Z,12.59
2023-05-09T06:39:34.740Z,12.81
2023-05-09T06:42:37.509Z,13.02
2023-05-09T06:45:39.822Z,13.14
2023-05-09T06:48:42.592Z,13.38
2023-05-09T06:51:44.922Z,13.56
2023-05-09T06:54:47.658Z,13.65
2023-05-09T06:57:49.999Z,13.77
2023-05-09T07:00:52.930Z,14.16
2023-05-09T07:03:55.251Z,14.50
2023-05-09T07:06:59.228Z,14.71
2023-05-09T07:10:11.214Z,15.22
2023-05-09T07:13:14.930Z,15.39
2023-05-09T07:16:18.516Z,15.11
2023-05-09T07:19:21.246Z,14.72
2023-05-09T07:22:23.736Z,14.67
2023-05-09T07:25:26.378Z,14.73
2023-05-09T07:28:28.744Z,14.74
2023-05-09T07:31:31.505Z,14.83
2023-05-09T07:34:33.852Z,15.03
2023-05-09T07:37:36.743Z,15.11
2023-05-09T07:40:39.253Z,15.15
2023-05-09T07:43:41.934Z,15.34
2023-05-09T07:46:44.234Z,15.30
2023-05-09T07:49:48.022Z,15.23
2023-05-09T07:52:51.238Z,15.32
2023-05-09T07:55:53.948Z,15.22
2023-05-09T07:58:56.224Z,15.28
2023-05-09T08:01:58.871Z,15.44
2023-05-09T08:05:01.782Z,15.65
2023-05-09T08:08:04.653Z,15.86
2023-05-09T08:11:07.668Z,16.08
2023-05-09T08:14:10.460Z,16.08
2023-05-09T08:17:13.025Z,16.07
2023-05-09T08:20:15.424Z,16.21
2023-05-09T08:23:18.111Z,16.14
2023-05-09T08:26:22.625Z,16.38
2023-05-09T08:29:25.353Z,16.49
2023-05-09T08:32:27.778Z,16.71
2023-05-09T08:35:30.638Z,16.76
2023-05-09T08:38:32.957Z,16.71
2023-05-09T08:41:36.173Z,16.54
2023-05-09T08:44:38.779Z,16.77
2023-05-09T08:47:42.280Z,16.67
2023-05-09T08:50:45.184Z,16.48
2023-05-09T08:53:47.895Z,17.04
2023-05-09T08:56:51.011Z,17.87
2023-05-09T08:59:55.075Z,18.05
2023-05-09T09:03:00.725Z,17.85
2023-05-09T09:06:03.899Z,17.80
2023-05-09T09:09:11.465Z,18.76
2023-05-09T09:12:16.420Z,19.45
2023-05-09T09:15:20.505Z,18.77
2023-05-09T09:18:29.362Z,18.17
2023-05-09T09:21:32.220Z,18.30
2023-05-09T09:24:35.886Z,18.02
2023-05-09T09:27:38.393Z,18.16
2023-05-09T09:30:47.475Z,18.40
2023-05-09T09:33:51.447Z,18.21
2023-05-09T09:36:54.131Z,18.01
2023-05-09T09:39:56.917Z,18.40
2023-05-09T09:42:59.548Z,18.53
2023-05-09T09:46:03.851Z,18.59
2023-05-09T09:49:09.387Z,18.72
2023-05-09T09:52:11.888Z,18.21
2023-05-09T09:55:14.698Z,18.45
2023-05-09T09:58:18.495Z,18.75
2023-05-09T10:01:21.238Z,18.66
2023-05-09T10:04:25.578Z,18.72
2023-05-09T10:07:34.140Z,18.70
2023-05-09T10:10:37.496Z,18.93
2023-05-09T10:13:39.845Z,19.61
2023-05-09T10:16:44.749Z,19.68
2023-05-09T10:19:49.605Z,19.77
2023-05-09T10:23:01.110Z,19.24
2023-05-09T10:26:25.633Z,18.89
2023-05-09T10:29:32.277Z,18.96
2023-05-09T10:32:43.995Z,18.52
2023-05-09T10:35:48.204Z,18.62
2023-05-09T10:38:53.948Z,19.15
2023-05-09T10:41:59.182Z,19.18
2023-05-09T10:45:02.122Z,18.91
2023-05-09T10:48:08.773Z,19.18
2023-05-09T10:51:12.722Z,19.25
2023-05-09T10:54:25.440Z,19.13
2023-05-09T10:57:31.972Z,19.01
2023-05-09T11:00:41.569Z,18.60
2023-05-09T11:03:57.816Z,18.40
2023-05-09T11:07:00.899Z,18.72
2023-05-09T11:10:10.988Z,18.30
2023-05-09T11:13:13.728Z,18.19
2023-05-09T11:16:16.391Z,18.01
2023-05-09T11:19:45.700Z,18.21
2023-05-09T11:22:53.029Z,18.57
2023-05-09T11:26:05.628Z,18.14
2023-05-09T11:29:10.080Z,17.94
2023-05-09T11:32:16.094Z,18.10
2023-05-09T11:35:21.377Z,18.47
2023-05-09T11:38:25.641Z,18.38
2023-05-09T11:41:28.791Z,18.56
2023-05-09T11:44:33.424Z,18.71
2023-05-09T11:47:39.644Z,18.39
2023-05-09T11:50:42.482Z,18.33
2023-05-09T11:53:46.891Z,18.48
2023-05-09T11:56:49.791Z,18.13
2023-05-09T11:59:52.801Z,18.09
2023-05-09T12:02:55.752Z,18.22
2023-05-09T12:05:58.578Z,17.99
2023-05-09T12:09:00.968Z,18.02
2023-05-09T12:12:11.776Z,18.47
2023-05-09T12:15:15.672Z,18.65
2023-05-09T12:18:18.577Z,18.37
2023-05-09T12:21:21.774Z,18.12
2023-05-09T12:24:29.303Z,18.18
2023-05-09T12:27:33.026Z,18.53
2023-05-09T12:30:35.983Z,18.25
2023-05-09T12:33:39.536Z,17.99
2023-05-09T12:36:50.542Z,18.20
2023-05-09T12:40:09.400Z,18.68
2023-05-09T12:43:14.062Z,18.79
2023-05-09T12:46:20.444Z,18.76
2023-05-09T12:49:23.991Z,18.64
2023-05-09T12:52:33.424Z,18.43
2023-05-09T12:55:44.008Z,18.15
2023-05-09T12:58:51.243Z,18.22
2023-05-09T13:01:59.146Z,18.25
2023-05-09T13:05:10.223Z,18.70
2023-05-09T13:08:12.877Z,18.69
2023-05-09T13:11:17.385Z,18.68
2023-05-09T13:14:22.489Z,18.68
2023-05-09T13:17:25.029Z,19.10
2023-05-09T13:20:27.817Z,19.35
2023-05-09T13:23:30.268Z,19.54
2023-05-09T13:26:33.857Z,19.94
2023-05-09T13:29:41.003Z,20.07
2023-05-09T13:32:44.784Z,19.83
2023-05-09T13:35:49.857Z,19.39
2023-05-09T13:38:52.652Z,18.97
2023-05-09T13:41:57.587Z,18.75
2023-05-09T13:45:03.350Z,18.57
2023-05-09T13:48:06.022Z,18.67
2023-05-09T13:51:09.949Z,18.71
2023-05-09T13:54:17.305Z,18.49
2023-05-09T13:57:20.067Z,18.42
2023-05-09T14:00:24.573Z,18.33
2023-05-09T14:03:27.511Z,18.26
2023-05-09T14:06:30.600Z,18.10
2023-05-09T14:09:39.729Z,18.23
2023-05-09T14:12:44.343Z,18.11
2023-05-09T14:15:47.246Z,18.14
2023-05-09T14:18:49.545Z,18.15
2023-05-09T14:21:52.120Z,18.05
2023-05-09T14:24:56.465Z,17.99
2023-05-09T14:28:00.220Z,18.03
2023-05-09T14:31:03.441Z,18.25
2023-05-09T14:34:06.327Z,18.31
2023-05-09T14:37:13.706Z,18.44
2023-05-09T14:40:16.703Z,18.66
2023-05-09T14:43:19.326Z,18.78
2023-05-09T14:46:24.650Z,18.61
2023-05-09T14:49:27.056Z,18.59
2023-05-09T14:52:29.731Z,18.51
2023-05-09T14:55:32.457Z,18.35
2023-05-09T14:58:35.702Z,18.26
2023-05-09T15:01:38.188Z,18.20
2023-05-09T15:04:43.785Z,18.02
2023-05-09T15:07:46.468Z,17.86
2023-05-09T15:10:50.801Z,17.69
2023-05-09T15:13:53.375Z,17.76
2023-05-09T15:16:59.119Z,17.85
2023-05-09T15:20:02.864Z,18.15
2023-05-09T15:23:07.524Z,18.42
2023-05-09T15:26:12.260Z,18.65
2023-05-09T15:29:14.949Z,18.79
2023-05-09T15:32:17.947Z,18.94
2023-05-09T15:35:20.705Z,19.06
2023-05-09T15:38:23.124Z,18.97
2023-05-09T15:41:26.169Z,18.91
2023-05-09T15:44:28.557Z,18.55
2023-05-09T15:47:31.118Z,18.30
2023-05-09T15:50:33.783Z,18.15
